Time;durP1;ratioP1;P1;durP2;ratioP2;P2;SDS_P1;SDS_P2;PMS_P1;PMS_P2;Temp;Humidity;BMP_temperature;BMP_pressure;BME280_temperature;BME280_humidity;BME280_pressure;Samples;Min_cycle;Max_cycle;Signal;HPM_P1;HPM_P2
2023/10/08 00:00:55;;;;;;;6.82;2.95;;;18.80;99.90;;;;;;5015512;28;20208;-65
2023/10/08 00:03:29;;;;;;;13.07;3.25;;;18.80;99.90;;;;;;5033824;28;20213;-64
2023/10/08 00:05:56;;;;;;;6.82;2.78;;;18.90;99.90;;;;;;5042772;28;20306;-67
2023/10/08 00:08:23;;;;;;;4.80;2.90;;;18.80;99.90;;;;;;5037180;28;20258;-68
2023/10/08 00:10:51;;;;;;;5.20;3.25;;;18.80;99.90;;;;;;5041576;28;20227;-70
2023/10/08 00:13:18;;;;;;;18.75;3.58;;;18.80;99.90;;;;;;5045433;28;20214;-65
2023/10/08 00:15:54;;;;;;;5.43;2.83;;;18.70;99.90;;;;;;5032921;28;20196;-71
2023/10/08 00:18:23;;;;;;;4.47;2.53;;;18.70;99.90;;;;;;5020764;28;20210;-69
2023/10/08 00:23:41;;;;;;;6.85;3.30;;;18.70;99.90;;;;;;5039764;28;20215;-65
2023/10/08 00:26:09;;;;;;;5.10;2.75;;;18.70;99.90;;;;;;5043760;28;20711;-65
2023/10/08 00:28:36;;;;;;;4.78;3.08;;;18.70;99.90;;;;;;5046881;28;20203;-65
2023/10/08 00:31:11;;;;;;;6.85;3.00;;;18.70;99.90;;;;;;5040612;28;20223;-64
2023/10/08 00:33:39;;;;;;;4.18;3.00;;;18.60;99.90;;;;;;5039072;28;20214;-65
2023/10/08 00:36:27;;;;;;;6.03;3.05;;;18.70;99.90;;;;;;5036294;28;20210;-65
2023/10/08 00:38:59;;;;;;;6.97;3.15;;;18.70;99.90;;;;;;5036801;28;20201;-65
2023/10/08 00:41:32;;;;;;;7.75;3.38;;;18.70;99.90;;;;;;5024897;28;20534;-65
2023/10/08 00:44:00;;;;;;;8.52;3.20;;;18.60;99.90;;;;;;5040921;28;20196;-65
2023/10/08 00:46:32;;;;;;;4.40;3.00;;;18.60;99.90;;;;;;5033483;28;20714;-70
2023/10/08 00:57:29;;;;;;;7.10;3.03;;;18.70;99.90;;;;;;5022251;28;20734;-72
2023/10/08 00:59:58;;;;;;;6.03;2.67;;;18.80;99.90;;;;;;5041187;28;20203;-70
2023/10/08 01:02:29;;;;;;;7.75;3.65;;;18.80;99.90;;;;;;5032127;28;20287;-70
2023/10/08 01:04:56;;;;;;;5.20;3.50;;;18.70;99.90;;;;;;5040708;28;20196;-70
2023/10/08 01:07:25;;;;;;;4.55;2.90;;;18.60;99.90;;;;;;5033421;28;20227;-69
2023/10/08 01:09:56;;;;;;;5.35;2.60;;;18.60;99.90;;;;;;5030248;28;20212;-68
2023/10/08 01:12:33;;;;;;;5.18;3.08;;;18.60;99.90;;;;;;5039587;28;20707;-73
2023/10/08 01:15:18;;;;;;;8.07;3.08;;;18.60;99.90;;;;;;5040213;28;20216;-68
2023/10/08 01:17:51;;;;;;;7.97;3.13;;;18.60;99.90;;;;;;5030777;28;20188;-74
2023/10/08 01:20:43;;;;;;;5.68;3.72;;;18.60;99.90;;;;;;5032858;28;20573;-76
2023/10/08 01:23:13;;;;;;;7.57;3.95;;;18.60;99.90;;;;;;5021565;28;20215;-69
2023/10/08 01:25:42;;;;;;;13.23;4.30;;;18.60;99.90;;;;;;5042326;28;20631;-68
2023/10/08 01:28:32;;;;;;;5.22;3.03;;;18.60;99.90;;;;;;5042344;28;20528;-68
2023/10/08 01:31:00;;;;;;;7.80;3.42;;;18.60;99.90;;;;;;5019322;28;20257;-69
2023/10/08 01:33:28;;;;;;;8.00;3.75;;;18.60;99.90;;;;;;5035674;28;20387;-69
2023/10/08 01:36:03;;;;;;;4.57;2.80;;;18.60;99.90;;;;;;5039589;28;20192;-69
2023/10/08 01:38:33;;;;;;;8.18;3.40;;;18.60;99.90;;;;;;5038425;28;20900;-71
2023/10/08 01:41:05;;;;;;;9.75;3.67;;;18.60;99.90;;;;;;5035336;28;20306;-69
2023/10/08 01:43:32;;;;;;;8.77;4.10;;;18.60;99.90;;;;;;5030729;28;20530;-71
2023/10/08 01:46:03;;;;;;;6.78;2.90;;;18.60;99.90;;;;;;5034916;28;20192;-74
2023/10/08 01:48:37;;;;;;;4.72;3.15;;;18.60;99.90;;;;;;5016948;28;20216;-72
2023/10/08 01:51:11;;;;;;;6.25;3.08;;;18.50;99.90;;;;;;5031447;28;20204;-70
2023/10/08 01:53:38;;;;;;;8.13;3.63;;;18.60;99.90;;;;;;5036363;28;20278;-73
2023/10/08 01:56:06;;;;;;;8.30;3.35;;;18.60;99.90;;;;;;5039677;28;20207;-68
2023/10/08 01:58:35;;;;;;;7.00;3.25;;;18.60;99.90;;;;;;5034822;28;20184;-63
2023/10/08 02:05:04;;;;;;;5.97;3.13;;;18.70;99.90;;;;;;5035105;28;20722;-64
2023/10/08 02:07:31;;;;;;;7.85;3.13;;;18.60;99.90;;;;;;5035633;28;20710;-63
2023/10/08 02:09:58;;;;;;;8.55;3.53;;;18.60;99.90;;;;;;5035350;28;20258;-64
2023/10/08 02:12:25;;;;;;;7.43;3.47;;;18.50;99.90;;;;;;5037016;28;20180;-63
2023/10/08 02:14:52;;;;;;;7.93;3.50;;;18.40;99.90;;;;;;5027897;28;20267;-68
2023/10/08 02:17:22;;;;;;;5.80;3.78;;;18.40;99.90;;;;;;5026855;28;20740;-70
2023/10/08 02:19:53;;;;;;;14.55;3.45;;;18.50;99.90;;;;;;5033709;28;20197;-69
2023/10/08 02:22:20;;;;;;;9.27;4.00;;;18.40;99.90;;;;;;5034000;28;20757;-69
2023/10/08 02:24:48;;;;;;;5.38;3.63;;;18.50;99.90;;;;;;5038311;28;20204;-69
2023/10/08 02:27:15;;;;;;;5.30;2.88;;;18.30;99.90;;;;;;5039295;28;20192;-72
2023/10/08 02:29:42;;;;;;;7.93;3.60;;;18.30;99.90;;;;;;5031564;28;20239;-69
2023/10/08 02:32:09;;;;;;;9.48;3.47;;;18.20;99.90;;;;;;5034681;28;20705;-69
2023/10/08 02:34:36;;;;;;;11.30;3.53;;;18.10;99.90;;;;;;5036996;28;20203;-69
2023/10/08 02:37:03;;;;;;;10.38;3.70;;;18.00;99.90;;;;;;5041808;28;20683;-70
2023/10/08 02:39:31;;;;;;;10.90;4.25;;;17.90;99.90;;;;;;5023957;28;20215;-69
2023/10/08 02:41:59;;;;;;;8.30;3.42;;;18.00;99.90;;;;;;5033759;28;20702;-75
2023/10/08 02:44:27;;;;;;;8.23;4.00;;;18.00;99.90;;;;;;5031809;28;20195;-70
2023/10/08 02:46:55;;;;;;;6.05;3.42;;;18.00;99.90;;;;;;5033801;28;20545;-69
2023/10/08 02:49:22;;;;;;;8.07;3.72;;;18.00;99.90;;;;;;5038940;28;20845;-69
2023/10/08 02:51:54;;;;;;;9.55;3.80;;;18.00;99.90;;;;;;5034346;28;20683;-69
2023/10/08 02:54:24;;;;;;;11.48;4.47;;;18.10;99.90;;;;;;5038420;28;20191;-69
2023/10/08 02:56:55;;;;;;;6.80;3.45;;;18.10;99.90;;;;;;5038432;28;20227;-68
2023/10/08 02:59:22;;;;;;;11.02;3.85;;;18.10;99.90;;;;;;5037845;28;20199;-67
2023/10/08 03:01:50;;;;;;;7.95;3.10;;;18.10;99.90;;;;;;5033533;28;20265;-65
2023/10/08 03:04:27;;;;;;;10.43;3.70;;;18.00;99.90;;;;;;5023716;28;20204;-63
2023/10/08 03:06:57;;;;;;;9.90;3.70;;;18.00;99.90;;;;;;5039559;28;20222;-64
2023/10/08 03:09:26;;;;;;;6.85;3.17;;;17.90;99.90;;;;;;5031418;28;20192;-63
2023/10/08 03:11:58;;;;;;;6.53;3.38;;;18.00;99.90;;;;;;5036833;28;20209;-63
2023/10/08 03:14:41;;;;;;;8.60;3.25;;;18.00;99.90;;;;;;5036499;28;20560;-64
2023/10/08 03:17:09;;;;;;;9.57;3.45;;;18.00;99.90;;;;;;5041039;28;20513;-73
2023/10/08 03:19:38;;;;;;;7.43;3.80;;;18.00;99.90;;;;;;5033455;28;20208;-63
2023/10/08 03:22:05;;;;;;;12.25;3.92;;;18.00;99.90;;;;;;5033728;28;20199;-63
2023/10/08 03:27:41;;;;;;;7.68;3.97;;;18.00;99.90;;;;;;5038578;28;20570;-63
2023/10/08 03:29:58;;;;;;;10.57;4.57;;;18.00;99.90;;;;;;5037804;28;20588;-64
2023/10/08 03:32:26;;;;;;;14.20;4.78;;;17.90;99.90;;;;;;5028395;28;20715;-63
2023/10/08 03:34:54;;;;;;;5.72;3.20;;;17.90;99.90;;;;;;5035084;28;20199;-63
2023/10/08 03:37:29;;;;;;;14.18;4.15;;;17.90;99.90;;;;;;5020877;28;20295;-63
2023/10/08 03:42:49;;;;;;;6.60;3.58;;;18.00;99.90;;;;;;5024267;28;20204;-63
2023/10/08 03:45:22;;;;;;;8.52;3.95;;;18.10;99.90;;;;;;5035455;28;20246;-63
2023/10/08 03:48:05;;;;;;;8.85;3.63;;;18.00;99.90;;;;;;5027260;28;20660;-64
2023/10/08 03:50:40;;;;;;;8.38;3.83;;;18.00;99.90;;;;;;5031295;28;20204;-63
2023/10/08 03:53:16;;;;;;;7.07;3.45;;;17.80;99.90;;;;;;5033133;28;20544;-64
2023/10/08 03:55:43;;;;;;;11.27;4.47;;;17.80;99.90;;;;;;5038906;28;20621;-65
2023/10/08 03:58:17;;;;;;;12.05;4.03;;;17.80;99.90;;;;;;5034632;28;20310;-64
2023/10/08 04:00:45;;;;;;;9.50;4.70;;;17.80;99.90;;;;;;5036009;28;20677;-63
2023/10/08 04:03:12;;;;;;;11.65;5.13;;;17.80;99.90;;;;;;5039861;28;20200;-62
2023/10/08 04:08:55;;;;;;;10.70;6.75;;;18.10;99.90;;;;;;5034544;28;20714;-63
2023/10/08 04:11:32;;;;;;;9.48;5.28;;;18.30;99.90;;;;;;5035220;28;20208;-62
2023/10/08 04:14:02;;;;;;;12.27;4.70;;;18.20;99.90;;;;;;5044349;28;20606;-62
2023/10/08 04:16:31;;;;;;;8.75;3.90;;;18.00;99.90;;;;;;5033078;28;20196;-64
2023/10/08 04:19:03;;;;;;;5.60;3.35;;;17.60;99.90;;;;;;5031527;28;20664;-65
2023/10/08 04:21:33;;;;;;;8.27;3.47;;;17.20;99.90;;;;;;5035136;28;20197;-65
2023/10/08 04:24:03;;;;;;;8.13;4.70;;;17.00;99.90;;;;;;5027862;28;20515;-65
2023/10/08 04:26:31;;;;;;;6.13;4.32;;;16.90;99.90;;;;;;5031837;28;20615;-66
2023/10/08 04:29:06;;;;;;;7.68;4.78;;;17.00;99.90;;;;;;5042677;28;20720;-67
2023/10/08 04:31:37;;;;;;;6.43;3.65;;;17.30;99.90;;;;;;5027944;28;20671;-67
2023/10/08 04:34:28;;;;;;;6.75;4.38;;;17.00;99.90;;;;;;5031965;28;20242;-68
2023/10/08 04:36:57;;;;;;;2.63;2.33;;;16.80;99.90;;;;;;5036744;28;20192;-68
2023/10/08 04:39:33;;;;;;;7.30;3.70;;;16.60;99.90;;;;;;5039575;28;20192;-68
2023/10/08 04:42:12;;;;;;;2.03;1.70;;;16.60;99.90;;;;;;5033083;28;20200;-71
2023/10/08 04:44:40;;;;;;;3.72;1.88;;;16.40;99.90;;;;;;5019808;28;20208;-71
2023/10/08 04:47:08;;;;;;;3.13;1.80;;;16.20;99.90;;;;;;5035925;28;20745;-70
2023/10/08 04:49:45;;;;;;;1.60;1.50;;;15.90;99.90;;;;;;5035770;28;20681;-70
2023/10/08 04:52:15;;;;;;;2.15;1.65;;;15.70;99.90;;;;;;5020460;28;20226;-70
2023/10/08 04:54:51;;;;;;;3.22;2.72;;;15.40;99.90;;;;;;5031246;28;20251;-70
2023/10/08 04:57:22;;;;;;;3.13;2.22;;;15.70;99.90;;;;;;5034206;28;20762;-70
2023/10/08 04:59:50;;;;;;;1.23;1.13;;;16.10;99.90;;;;;;5032593;28;20319;-68
2023/10/08 05:02:49;;;;;;;2.20;1.75;;;16.40;99.90;;;;;;5028506;28;20188;-69
2023/10/08 05:15:41;;;;;;;1.40;1.30;;;15.90;99.90;;;;;;5033156;28;20686;-73
2023/10/08 05:18:13;;;;;;;2.50;1.73;;;16.30;99.90;;;;;;5037006;28;20234;-74
2023/10/08 05:28:36;;;;;;;2.13;1.50;;;16.10;99.90;;;;;;5035018;28;20192;-73
2023/10/08 05:36:19;;;;;;;13.35;11.50;;;16.20;99.90;;;;;;5025879;28;20614;-75
2023/10/08 05:38:51;;;;;;;15.30;12.88;;;15.70;99.90;;;;;;5036981;28;20199;-71
2023/10/08 05:41:51;;;;;;;11.85;9.85;;;15.20;99.90;;;;;;5033129;28;20679;-68
2023/10/08 05:44:14;;;;;;;11.20;9.25;;;14.90;99.90;;;;;;5040270;28;20677;-72
2023/10/08 05:46:56;;;;;;;9.40;7.90;;;14.60;99.90;;;;;;5038129;28;20270;-71
2023/10/08 05:49:38;;;;;;;7.87;6.63;;;14.50;99.90;;;;;;5040855;28;20322;-69
2023/10/08 06:00:29;;;;;;;4.57;3.97;;;14.60;99.90;;;;;;5033335;28;20234;-67
2023/10/08 06:13:29;;;;;;;3.38;2.35;;;14.50;99.90;;;;;;5027553;28;20200;-70
2023/10/08 06:18:27;;;;;;;2.20;1.97;;;14.50;99.90;;;;;;5037596;28;20617;-70
2023/10/08 06:21:08;;;;;;;1.35;1.20;;;14.50;99.90;;;;;;5041340;28;20282;-70
2023/10/08 06:23:39;;;;;;;1.40;1.30;;;14.80;99.90;;;;;;5033744;28;20203;-69
2023/10/08 06:28:44;;;;;;;1.47;1.20;;;14.50;99.90;;;;;;5040815;28;20200;-71
2023/10/08 06:31:11;;;;;;;3.17;1.95;;;14.50;99.90;;;;;;5031370;28;20295;-71
2023/10/08 06:33:40;;;;;;;1.83;1.70;;;14.50;99.90;;;;;;5035108;28;20196;-73
2023/10/08 06:38:50;;;;;;;2.00;1.80;;;14.70;99.90;;;;;;5030908;28;20821;-64
2023/10/08 06:41:17;;;;;;;3.03;1.30;;;14.80;99.90;;;;;;5035597;28;20189;-66
2023/10/08 06:44:14;;;;;;;1.83;1.60;;;14.90;99.90;;;;;;5032122;28;20200;-64
2023/10/08 06:46:41;;;;;;;1.20;1.10;;;14.90;99.90;;;;;;5028815;28;20448;-67
2023/10/08 06:49:13;;;;;;;1.20;1.03;;;14.30;99.90;;;;;;5028116;28;20215;-66
2023/10/08 06:51:45;;;;;;;1.87;1.10;;;14.00;99.90;;;;;;5029908;28;20238;-66
2023/10/08 06:54:16;;;;;;;1.50;1.40;;;13.80;99.90;;;;;;5028009;28;21248;-65
2023/10/08 06:56:51;;;;;;;1.83;1.30;;;13.70;99.90;;;;;;5032037;28;20193;-68
2023/10/08 06:59:23;;;;;;;1.50;1.40;;;13.70;99.90;;;;;;5028088;28;20730;-68
2023/10/08 07:01:51;;;;;;;1.23;0.87;;;13.60;99.90;;;;;;5028965;28;20200;-68
2023/10/08 07:04:21;;;;;;;3.40;1.10;;;13.80;1.00;;;;;;5033261;28;20199;-72
2023/10/08 07:06:50;;;;;;;1.00;0.90;;;13.60;1.00;;;;;;5029205;28;20224;-68
2023/10/08 07:09:56;;;;;;;0.80;0.77;;;13.50;99.90;;;;;;5031858;28;20270;-70
2023/10/08 07:12:14;;;;;;;2.57;1.00;;;13.00;99.90;;;;;;5029927;28;20228;-67
2023/10/08 07:14:41;;;;;;;2.13;0.77;;;12.80;1.00;;;;;;5029368;28;20199;-67
2023/10/08 07:17:11;;;;;;;4.80;1.97;;;12.60;1.00;;;;;;5036214;28;20234;-75
2023/10/08 07:19:47;;;;;;;1.77;0.87;;;12.50;1.00;;;;;;5034991;28;20198;-68
2023/10/08 07:22:23;;;;;;;4.80;1.40;;;12.70;1.00;;;;;;5030407;28;20212;-69
2023/10/08 07:24:53;;;;;;;5.80;1.67;;;12.60;1.00;;;;;;5050101;28;20208;-72
2023/10/08 07:27:29;;;;;;;3.13;1.27;;;12.70;1.00;;;;;;5026636;28;20728;-70
2023/10/08 07:30:00;;;;;;;11.90;1.77;;;12.70;99.90;;;;;;5031085;28;20207;-70
2023/10/08 07:32:30;;;;;;;2.70;1.27;;;12.60;1.00;;;;;;5028573;28;20238;-71
2023/10/08 07:35:14;;;;;;;1.97;1.10;;;12.40;1.00;;;;;;5027624;28;20767;-71
2023/10/08 07:37:42;;;;;;;2.63;1.70;;;12.50;1.00;;;;;;5036923;28;20199;-70
2023/10/08 07:40:12;;;;;;;2.13;1.10;;;12.40;1.00;;;;;;5024505;28;20216;-70
2023/10/08 07:42:39;;;;;;;5.87;1.47;;;12.40;1.00;;;;;;5037193;28;20208;-70
2023/10/08 07:45:07;;;;;;;1.37;1.20;;;12.40;1.00;;;;;;5029145;28;20208;-74
2023/10/08 07:47:34;;;;;;;2.73;1.07;;;12.40;99.90;;;;;;5034995;28;20185;-63
2023/10/08 07:50:11;;;;;;;1.13;1.00;;;12.50;1.00;;;;;;5031959;28;20291;-63
2023/10/08 07:52:39;;;;;;;4.77;1.20;;;12.40;1.00;;;;;;5027582;28;20215;-64
2023/10/08 07:55:07;;;;;;;3.43;1.53;;;12.50;1.00;;;;;;5028715;28;20665;-63
2023/10/08 07:57:34;;;;;;;4.13;1.30;;;12.50;1.00;;;;;;5028662;28;20266;-64
2023/10/08 08:00:18;;;;;;;5.07;1.03;;;12.60;1.00;;;;;;5033917;28;20710;-64
2023/10/08 08:02:45;;;;;;;1.47;0.93;;;12.50;1.00;;;;;;5035659;28;20192;-63
2023/10/08 08:05:16;;;;;;;1.70;1.00;;;12.50;1.00;;;;;;5030060;28;20197;-69
2023/10/08 08:07:49;;;;;;;4.10;1.10;;;12.40;1.00;;;;;;5039575;28;20585;-73
2023/10/08 08:10:18;;;;;;;2.27;1.57;;;12.50;1.00;;;;;;5032690;28;20679;-71
2023/10/08 08:12:45;;;;;;;6.23;1.67;;;12.30;1.00;;;;;;5031977;28;20239;-72
2023/10/08 08:15:15;;;;;;;4.47;1.13;;;12.40;1.00;;;;;;5026791;28;20691;-72
2023/10/08 08:17:43;;;;;;;7.03;1.10;;;12.30;1.00;;;;;;5036560;28;20193;-70
2023/10/08 08:20:34;;;;;;;3.47;1.30;;;12.30;1.00;;;;;;5010508;28;20200;-66
2023/10/08 08:23:06;;;;;;;3.87;0.90;;;12.40;1.00;;;;;;5033757;28;20242;-69
2023/10/08 08:28:46;;;;;;;1.90;1.07;;;12.40;1.00;;;;;;4982737;28;20601;-67
2023/10/08 08:31:14;;;;;;;6.17;1.57;;;12.40;1.00;;;;;;5021860;28;20208;-73
2023/10/08 08:33:56;;;;;;;6.60;1.90;;;12.40;1.00;;;;;;5032861;28;20196;-70
2023/10/08 08:36:24;;;;;;;4.60;1.37;;;12.60;1.00;;;;;;5036858;28;20725;-74
2023/10/08 08:38:51;;;;;;;5.57;1.33;;;12.60;1.00;;;;;;5037466;28;20273;-69
2023/10/08 08:41:22;;;;;;;3.53;1.30;;;12.60;1.00;;;;;;5030397;28;20193;-70
2023/10/08 08:43:58;;;;;;;3.00;1.10;;;12.60;1.00;;;;;;5028324;28;20696;-70
2023/10/08 08:46:35;;;;;;;5.53;1.00;;;12.60;99.90;;;;;;5026611;28;20200;-69
2023/10/08 08:49:11;;;;;;;3.43;0.90;;;12.50;99.90;;;;;;5026630;28;20200;-69
2023/10/08 08:51:38;;;;;;;3.40;1.60;;;12.30;99.90;;;;;;5027304;28;20546;-69
2023/10/08 08:54:06;;;;;;;5.60;1.30;;;12.60;99.90;;;;;;5032688;28;20194;-76
2023/10/08 08:56:36;;;;;;;3.70;0.90;;;12.70;99.90;;;;;;5028462;28;20195;-72
2023/10/08 08:59:04;;;;;;;3.33;1.20;;;12.70;99.90;;;;;;5034304;28;20181;-72
2023/10/08 09:01:32;;;;;;;1.40;0.80;;;12.50;99.90;;;;;;5028931;28;20227;-68
2023/10/08 09:04:05;;;;;;;3.23;1.10;;;12.60;99.90;;;;;;5033096;28;20283;-70
2023/10/08 09:06:40;;;;;;;2.30;0.90;;;12.80;99.90;;;;;;5032672;28;20730;-66
2023/10/08 09:09:23;;;;;;;4.80;1.17;;;13.10;99.90;;;;;;5031691;28;20234;-72
2023/10/08 09:11:51;;;;;;;4.30;1.20;;;13.20;99.90;;;;;;5040155;28;20212;-73
2023/10/08 09:14:25;;;;;;;3.03;0.93;;;13.00;99.90;;;;;;5037921;28;20611;-72
2023/10/08 09:16:56;;;;;;;3.27;1.30;;;12.80;99.90;;;;;;5033586;28;20583;-63
2023/10/08 09:19:26;;;;;;;3.27;1.10;;;12.90;99.90;;;;;;5035710;28;20271;-64
2023/10/08 09:22:10;;;;;;;1.70;1.00;;;12.90;99.90;;;;;;5034269;28;20203;-64
2023/10/08 09:24:39;;;;;;;5.57;1.23;;;13.00;99.90;;;;;;5031095;28;20312;-63
2023/10/08 09:27:08;;;;;;;2.03;0.90;;;12.90;99.90;;;;;;5036015;28;21427;-64
2023/10/08 09:29:39;;;;;;;2.63;0.83;;;12.80;99.90;;;;;;5037955;28;20256;-65
2023/10/08 09:32:23;;;;;;;4.77;1.80;;;13.10;99.90;;;;;;5037452;28;20226;-65
2023/10/08 09:34:52;;;;;;;1.93;1.40;;;13.30;99.90;;;;;;5027738;28;20192;-67
2023/10/08 09:37:21;;;;;;;1.50;1.00;;;13.70;99.90;;;;;;5035863;28;20203;-64
2023/10/08 09:39:52;;;;;;;3.50;1.10;;;13.50;99.90;;;;;;5021449;28;20254;-70
2023/10/08 09:42:22;;;;;;;1.97;0.97;;;13.50;99.90;;;;;;5031478;28;20212;-68
2023/10/08 09:44:49;;;;;;;1.10;0.83;;;13.70;99.90;;;;;;5031972;28;20199;-65
2023/10/08 09:47:22;;;;;;;2.27;0.83;;;13.50;99.90;;;;;;5036541;28;20196;-64
2023/10/08 09:50:01;;;;;;;3.57;1.10;;;13.40;99.90;;;;;;5031579;28;20257;-64
2023/10/08 09:52:38;;;;;;;2.70;1.00;;;13.80;99.90;;;;;;5016901;28;20247;-63
2023/10/08 09:55:12;;;;;;;3.33;1.00;;;13.80;99.90;;;;;;5038493;28;20187;-66
2023/10/08 09:57:39;;;;;;;3.70;1.00;;;14.30;99.90;;;;;;5040059;28;20206;-63
2023/10/08 10:00:14;;;;;;;1.37;1.07;;;14.40;99.90;;;;;;5027578;28;20200;-64
2023/10/08 10:02:43;;;;;;;2.28;1.30;;;14.70;99.90;;;;;;5033178;28;20198;-65
2023/10/08 10:05:24;;;;;;;2.95;1.20;;;15.00;99.90;;;;;;5029147;28;20232;-65
2023/10/08 10:07:55;;;;;;;3.45;1.55;;;15.30;99.90;;;;;;5028217;28;20246;-67
2023/10/08 10:10:27;;;;;;;1.83;1.10;;;15.20;99.90;;;;;;5034878;28;20236;-65
2023/10/08 10:12:59;;;;;;;1.00;0.93;;;15.20;99.90;;;;;;5030475;28;20986;-66
2023/10/08 10:15:31;;;;;;;4.40;1.38;;;15.10;99.90;;;;;;5030818;28;20894;-66
2023/10/08 10:18:08;;;;;;;2.97;1.23;;;15.30;99.90;;;;;;5036749;28;20251;-67
2023/10/08 10:20:40;;;;;;;2.33;1.33;;;15.50;99.90;;;;;;5034135;28;20560;-62
2023/10/08 10:23:37;;;;;;;1.40;1.17;;;15.30;99.90;;;;;;5014991;28;20613;-65
2023/10/08 10:26:09;;;;;;;6.68;1.63;;;15.30;99.90;;;;;;5026034;28;20208;-64
2023/10/08 10:28:37;;;;;;;3.03;1.40;;;15.10;99.90;;;;;;5013828;28;20208;-64
2023/10/08 10:31:04;;;;;;;2.25;1.40;;;15.00;99.90;;;;;;5030282;28;20200;-64
2023/10/08 10:33:37;;;;;;;3.22;1.27;;;14.90;99.90;;;;;;5027172;28;20302;-63
2023/10/08 10:36:08;;;;;;;5.50;1.50;;;15.00;99.90;;;;;;5031258;28;20548;-64
2023/10/08 10:38:35;;;;;;;3.40;1.30;;;14.90;99.90;;;;;;5024456;28;20248;-65
2023/10/08 10:41:08;;;;;;;1.73;0.80;;;14.70;99.90;;;;;;5024603;28;20212;-64
2023/10/08 10:43:39;;;;;;;7.63;1.30;;;14.90;99.90;;;;;;5031913;28;20203;-63
2023/10/08 10:46:30;;;;;;;9.32;1.77;;;15.00;99.90;;;;;;5031794;28;20242;-65
2023/10/08 10:49:21;;;;;;;1.83;1.48;;;15.30;99.90;;;;;;5029966;28;20291;-64
2023/10/08 10:51:48;;;;;;;2.42;1.05;;;15.40;99.90;;;;;;5031205;28;20195;-64
2023/10/08 10:54:23;;;;;;;6.90;1.17;;;15.60;99.90;;;;;;5028813;28;20303;-65
2023/10/08 10:57:03;;;;;;;2.95;1.10;;;16.00;99.90;;;;;;5029138;28;20195;-65
2023/10/08 10:59:37;;;;;;;9.48;1.85;;;16.00;99.90;;;;;;5028030;28;20197;-67
2023/10/08 11:02:08;;;;;;;1.65;1.20;;;16.20;99.90;;;;;;5033462;28;20204;-64
2023/10/08 11:04:47;;;;;;;2.60;1.20;;;16.40;99.90;;;;;;5036191;28;20203;-66
2023/10/08 11:07:17;;;;;;;5.28;1.25;;;16.70;99.90;;;;;;5042259;28;20244;-65
2023/10/08 11:09:44;;;;;;;2.38;0.95;;;16.70;99.90;;;;;;5019212;28;20250;-64
2023/10/08 11:12:18;;;;;;;4.97;1.40;;;17.20;99.90;;;;;;5051885;28;20226;-65
2023/10/08 11:14:52;;;;;;;4.05;1.13;;;17.60;99.90;;;;;;5032905;28;20195;-65
2023/10/08 11:17:27;;;;;;;1.35;1.25;;;17.40;99.90;;;;;;5016022;28;20196;-66
2023/10/08 11:19:54;;;;;;;3.17;1.30;;;16.90;99.90;;;;;;5036009;28;20196;-63
2023/10/08 11:22:22;;;;;;;3.80;1.38;;;16.70;99.90;;;;;;5038884;28;20198;-64
2023/10/08 11:24:57;;;;;;;2.03;1.20;;;16.40;99.90;;;;;;5034302;28;20199;-67
2023/10/08 11:27:35;;;;;;;2.03;1.63;;;16.30;99.90;;;;;;5034678;28;20453;-65
2023/10/08 11:30:10;;;;;;;6.78;1.35;;;16.60;99.90;;;;;;5034227;28;20185;-65
2023/10/08 11:32:41;;;;;;;3.67;1.58;;;16.40;99.90;;;;;;5034719;28;20207;-67
2023/10/08 11:35:15;;;;;;;3.83;1.13;;;16.00;99.90;;;;;;5037108;28;20203;-68
2023/10/08 11:37:50;;;;;;;3.42;1.52;;;15.70;99.90;;;;;;5031496;28;20204;-66
2023/10/08 11:40:29;;;;;;;4.72;1.73;;;15.70;99.90;;;;;;5036448;28;20190;-65
2023/10/08 11:42:59;;;;;;;1.73;1.40;;;15.90;99.90;;;;;;5024563;28;20193;-66
2023/10/08 11:45:26;;;;;;;1.75;1.20;;;16.20;99.90;;;;;;5035104;28;21871;-65
2023/10/08 11:48:02;;;;;;;3.90;1.35;;;16.40;99.90;;;;;;5033285;28;20231;-64
2023/10/08 11:50:34;;;;;;;1.38;1.20;;;16.20;99.90;;;;;;5037820;28;20254;-67
2023/10/08 11:53:02;;;;;;;3.42;1.65;;;16.30;99.90;;;;;;5032913;28;20212;-64
2023/10/08 11:55:35;;;;;;;3.47;1.30;;;16.30;99.90;;;;;;5017428;28;20196;-73
2023/10/08 11:58:11;;;;;;;2.00;1.23;;;16.60;99.90;;;;;;5035325;28;20216;-66
2023/10/08 12:00:45;;;;;;;4.07;1.30;;;17.20;99.90;;;;;;5031752;28;20197;-65
2023/10/08 12:03:19;;;;;;;3.53;1.50;;;17.00;99.90;;;;;;5037441;28;20265;-64
2023/10/08 12:05:58;;;;;;;1.58;1.20;;;17.10;99.90;;;;;;5032942;28;20215;-66
2023/10/08 12:08:28;;;;;;;2.83;1.25;;;17.60;99.90;;;;;;5035873;28;20595;-65
2023/10/08 12:10:55;;;;;;;1.63;1.20;;;17.40;99.90;;;;;;5032795;28;20192;-74
2023/10/08 12:13:24;;;;;;;1.77;1.20;;;17.20;99.90;;;;;;5013368;28;20224;-70
2023/10/08 12:16:18;;;;;;;3.92;1.40;;;17.00;99.90;;;;;;5037101;28;20193;-72
2023/10/08 12:18:48;;;;;;;3.75;1.50;;;16.90;99.90;;;;;;5036027;28;20192;-74
2023/10/08 12:21:17;;;;;;;2.38;1.15;;;16.90;99.90;;;;;;5037574;28;20253;-71
2023/10/08 12:23:46;;;;;;;1.42;1.20;;;16.80;99.90;;;;;;5041104;28;20215;-65
2023/10/08 12:26:18;;;;;;;4.18;1.63;;;16.50;99.90;;;;;;5031877;28;20262;-79
2023/10/08 12:28:50;;;;;;;3.10;1.23;;;17.00;99.90;;;;;;5032259;28;20636;-72
2023/10/08 12:31:24;;;;;;;3.38;1.02;;;17.30;99.90;;;;;;5040909;28;20199;-75
2023/10/08 12:33:56;;;;;;;2.10;1.35;;;17.50;99.90;;;;;;5037065;28;20208;-65
2023/10/08 12:36:24;;;;;;;1.63;1.20;;;17.20;99.90;;;;;;5036812;28;20192;-72
2023/10/08 12:38:57;;;;;;;2.72;1.42;;;17.20;99.90;;;;;;5036515;28;20196;-66
2023/10/08 12:41:28;;;;;;;2.60;1.23;;;17.40;99.90;;;;;;5012292;28;20193;-72
2023/10/08 12:43:58;;;;;;;1.95;1.17;;;17.20;99.90;;;;;;5033477;28;20185;-64
2023/10/08 12:46:30;;;;;;;1.75;1.10;;;17.40;99.90;;;;;;5030730;28;20204;-67
2023/10/08 12:49:01;;;;;;;1.58;1.08;;;17.70;99.90;;;;;;5034722;28;20202;-68
2023/10/08 12:51:32;;;;;;;1.27;1.15;;;17.70;99.90;;;;;;5030891;28;20188;-71
2023/10/08 12:54:06;;;;;;;5.20;1.60;;;17.50;99.90;;;;;;5039665;28;20208;-65
2023/10/08 12:56:35;;;;;;;2.20;1.30;;;17.70;99.90;;;;;;5030693;28;20192;-64
2023/10/08 12:59:06;;;;;;;4.55;1.30;;;17.00;99.90;;;;;;5025333;28;20191;-66
2023/10/08 13:01:36;;;;;;;2.47;0.90;;;16.70;99.90;;;;;;5032725;28;20195;-66
2023/10/08 13:04:07;;;;;;;1.77;1.10;;;16.80;99.90;;;;;;5030522;28;20227;-64
2023/10/08 13:06:38;;;;;;;1.27;1.17;;;16.70;99.90;;;;;;5034498;28;20448;-63
2023/10/08 13:09:12;;;;;;;1.48;1.23;;;16.20;99.90;;;;;;5033687;28;20243;-64
2023/10/08 13:11:40;;;;;;;2.40;1.13;;;16.00;99.90;;;;;;5037595;28;20314;-67
2023/10/08 13:14:07;;;;;;;1.65;1.20;;;16.10;99.90;;;;;;5038114;28;20261;-65
2023/10/08 13:16:37;;;;;;;3.08;1.50;;;16.30;99.90;;;;;;5020153;28;20726;-64
2023/10/08 13:19:08;;;;;;;2.28;1.33;;;16.50;99.90;;;;;;5033130;28;20658;-64
2023/10/08 13:21:36;;;;;;;3.90;1.20;;;16.70;99.90;;;;;;5036104;28;20296;-64
2023/10/08 13:24:08;;;;;;;2.42;1.20;;;16.80;99.90;;;;;;5018439;28;20207;-65
2023/10/08 13:26:38;;;;;;;1.27;1.10;;;16.70;99.90;;;;;;5030880;28;20597;-64
2023/10/08 13:29:09;;;;;;;1.17;1.08;;;16.90;99.90;;;;;;5031081;28;20207;-64
2023/10/08 13:31:37;;;;;;;1.27;1.00;;;17.20;99.90;;;;;;5031892;28;20559;-63
2023/10/08 13:34:08;;;;;;;1.15;1.05;;;17.70;99.90;;;;;;5034281;28;20252;-65
2023/10/08 13:36:37;;;;;;;4.93;1.25;;;17.70;99.90;;;;;;5036632;28;20198;-70
2023/10/08 13:39:09;;;;;;;3.45;1.40;;;17.10;99.90;;;;;;5028544;28;20200;-70
2023/10/08 13:41:38;;;;;;;1.25;1.15;;;16.80;99.90;;;;;;5031430;28;20215;-72
2023/10/08 13:44:06;;;;;;;1.90;1.25;;;17.10;99.90;;;;;;5034547;28;20192;-70
2023/10/08 13:46:36;;;;;;;1.45;1.10;;;17.00;99.90;;;;;;5030844;28;20812;-72
2023/10/08 13:49:06;;;;;;;1.38;1.08;;;16.80;99.90;;;;;;5033231;28;20587;-71
2023/10/08 13:51:34;;;;;;;2.30;1.23;;;16.50;99.90;;;;;;5029413;28;20204;-78
2023/10/08 13:54:06;;;;;;;3.65;1.20;;;16.50;99.90;;;;;;5034464;28;20580;-71
2023/10/08 13:56:33;;;;;;;1.10;1.00;;;16.70;99.90;;;;;;5036185;28;20198;-70
2023/10/08 13:59:06;;;;;;;1.77;1.00;;;16.70;99.90;;;;;;5030643;28;20419;-71
2023/10/08 14:01:34;;;;;;;1.33;1.20;;;16.70;99.90;;;;;;5042745;28;20553;-72
2023/10/08 14:04:05;;;;;;;1.25;1.10;;;16.80;99.90;;;;;;5020902;28;20266;-71
2023/10/08 14:06:34;;;;;;;1.58;1.17;;;16.80;99.90;;;;;;5026095;28;20269;-69
2023/10/08 14:09:07;;;;;;;1.67;1.15;;;16.50;99.90;;;;;;5026437;28;20289;-74
2023/10/08 14:11:34;;;;;;;2.15;1.50;;;16.50;99.90;;;;;;5027705;28;20200;-71
2023/10/08 14:14:07;;;;;;;1.40;1.30;;;16.80;99.90;;;;;;5032015;28;20218;-71
2023/10/08 14:16:35;;;;;;;1.30;1.00;;;16.80;99.90;;;;;;5032098;28;20863;-71
2023/10/08 14:19:04;;;;;;;3.28;1.48;;;16.40;99.90;;;;;;5030994;28;20250;-73
2023/10/08 14:21:36;;;;;;;4.65;1.30;;;16.30;99.90;;;;;;5024398;28;20707;-71
2023/10/08 14:24:05;;;;;;;1.55;1.45;;;16.20;99.90;;;;;;5037285;28;20589;-77
2023/10/08 14:26:36;;;;;;;3.65;2.25;;;16.20;99.90;;;;;;5037744;28;20281;-71
2023/10/08 14:29:17;;;;;;;2.92;2.15;;;16.10;99.90;;;;;;5028333;28;20321;-71